createdAt,value
2019-02-12T00:01:46.478Z,2.20
2019-02-12T00:04:16.230Z,2.47
2019-02-12T00:06:46.089Z,2.30
2019-02-12T00:09:15.894Z,2.07
2019-02-12T00:11:45.720Z,2.00
2019-02-12T00:14:15.567Z,2.33
2019-02-12T00:16:45.350Z,2.20
2019-02-12T00:19:15.169Z,2.20
2019-02-12T00:21:45.050Z,2.20
2019-02-12T00:24:14.907Z,1.83
2019-02-12T00:26:44.815Z,2.50
2019-02-12T00:29:15.022Z,1.90
2019-02-12T00:31:44.820Z,1.90
2019-02-12T00:34:14.691Z,2.43
2019-02-12T00:36:44.607Z,2.83
2019-02-12T00:39:14.437Z,2.03
2019-02-12T00:41:44.251Z,1.90
2019-02-12T00:44:14.070Z,2.00
2019-02-12T00:46:43.882Z,2.00
2019-02-12T00:49:13.724Z,2.17
2019-02-12T00:51:43.614Z,2.67
2019-02-12T00:54:13.437Z,2.33
2019-02-12T00:56:43.205Z,2.30
2019-02-12T00:59:13.015Z,2.10
2019-02-12T01:01:42.854Z,2.30
2019-02-12T01:04:12.673Z,2.33
2019-02-12T01:06:42.473Z,2.10
2019-02-12T01:09:12.251Z,2.43
2019-02-12T01:11:42.150Z,2.20
2019-02-12T01:14:12.314Z,1.93
2019-02-12T01:16:42.172Z,1.90
2019-02-12T01:19:11.971Z,2.40
2019-02-12T01:21:41.853Z,2.23
2019-02-12T01:24:11.594Z,2.10
2019-02-12T01:26:41.503Z,2.30
2019-02-12T01:29:11.259Z,2.20
2019-02-12T01:31:41.140Z,2.30
2019-02-12T01:34:10.876Z,2.13
2019-02-12T01:36:40.699Z,2.03
2019-02-12T01:39:12.723Z,2.50
2019-02-12T01:41:42.476Z,2.83
2019-02-12T01:44:12.327Z,2.27
2019-02-12T01:46:42.155Z,2.20
2019-02-12T01:49:11.991Z,2.40
2019-02-12T01:51:41.807Z,2.30
2019-02-12T01:54:11.683Z,2.10
2019-02-12T01:56:41.523Z,2.60
2019-02-12T01:59:11.404Z,2.40
2019-02-12T02:01:41.215Z,2.40
2019-02-12T02:04:11.085Z,2.03
2019-02-12T02:06:40.945Z,2.13
2019-02-12T02:09:10.886Z,2.63
2019-02-12T02:11:40.673Z,2.43
2019-02-12T02:14:10.408Z,2.27
2019-02-12T02:16:40.260Z,2.07
2019-02-12T02:19:10.090Z,1.90
2019-02-12T02:21:44.058Z,2.13
2019-02-12T02:24:11.359Z,1.97
2019-02-12T02:26:41.209Z,1.87
2019-02-12T02:29:11.230Z,2.90
2019-02-12T02:31:41.122Z,2.30
2019-02-12T02:34:10.959Z,2.00
2019-02-12T02:36:40.773Z,2.07
2019-02-12T02:39:10.610Z,2.17
2019-02-12T02:41:40.480Z,2.13
2019-02-12T02:44:10.210Z,1.60
2019-02-12T02:46:40.041Z,2.40
2019-02-12T02:49:09.893Z,2.50
2019-02-12T02:51:39.704Z,2.37
2019-02-12T02:54:09.592Z,1.80
2019-02-12T02:56:39.407Z,2.37
2019-02-12T02:59:09.206Z,2.70
2019-02-12T03:01:39.011Z,2.10
2019-02-12T03:04:08.814Z,2.50
2019-02-12T03:06:38.843Z,2.30
2019-02-12T03:09:09.335Z,3.17
2019-02-12T03:11:39.193Z,2.40
2019-02-12T03:14:09.048Z,2.73
2019-02-12T03:16:38.849Z,2.73
2019-02-12T03:19:08.704Z,2.33
2019-02-12T03:21:38.534Z,2.17
2019-02-12T03:24:08.382Z,2.37
2019-02-12T03:26:38.228Z,2.47
2019-02-12T03:29:08.063Z,2.40
2019-02-12T03:31:37.914Z,2.40
2019-02-12T03:34:07.861Z,2.20
2019-02-12T03:36:37.675Z,2.60
2019-02-12T03:39:07.636Z,2.27
2019-02-12T03:41:37.493Z,2.10
2019-02-12T03:44:07.326Z,2.50
2019-02-12T03:46:37.125Z,1.70
2019-02-12T03:49:06.965Z,2.00
2019-02-12T03:51:36.787Z,2.03
2019-02-12T03:54:06.526Z,1.60
2019-02-12T03:56:36.540Z,1.50
2019-02-12T03:59:06.898Z,1.90
2019-02-12T04:01:36.720Z,1.67
2019-02-12T04:04:06.547Z,1.80
2019-02-12T04:06:36.354Z,1.90
2019-02-12T04:09:06.234Z,1.70
2019-02-12T04:11:35.994Z,1.47
2019-02-12T04:14:05.867Z,1.57
2019-02-12T04:16:35.634Z,1.60
2019-02-12T04:19:05.524Z,1.70
2019-02-12T04:21:35.283Z,1.83
2019-02-12T04:24:05.023Z,1.40
2019-02-12T04:26:34.874Z,1.57
2019-02-12T04:29:04.663Z,2.00
2019-02-12T04:31:34.457Z,1.87
2019-02-12T04:34:04.211Z,1.60
2019-02-12T04:36:34.026Z,1.87
2019-02-12T04:39:03.902Z,1.67
2019-02-12T04:41:33.828Z,1.50
2019-02-12T04:44:03.727Z,1.80
2019-02-12T04:46:34.052Z,1.70
2019-02-12T04:49:03.760Z,2.33
2019-02-12T04:51:33.574Z,1.93
2019-02-12T04:54:03.422Z,1.80
2019-02-12T04:56:33.282Z,1.40
2019-02-12T04:59:03.114Z,1.70
2019-02-12T05:01:33.048Z,1.20
2019-02-12T05:04:02.882Z,2.23
2019-02-12T05:06:32.671Z,1.80
2019-02-12T05:09:12.138Z,1.60
2019-02-12T05:11:43.690Z,1.23
2019-02-12T05:14:13.522Z,1.40
2019-02-12T05:16:43.289Z,1.63
2019-02-12T05:19:13.540Z,1.77
2019-02-12T05:21:43.499Z,1.30
2019-02-12T05:24:13.303Z,1.50
2019-02-12T05:26:43.118Z,1.60
2019-02-12T05:29:12.952Z,1.57
2019-02-12T05:31:42.945Z,1.40
2019-02-12T05:34:12.965Z,1.60
2019-02-12T05:36:43.150Z,1.40
2019-02-12T05:39:13.054Z,1.80
2019-02-12T05:41:42.893Z,2.07
2019-02-12T05:44:15.577Z,2.43
2019-02-12T05:46:45.334Z,1.97
2019-02-12T05:49:15.201Z,1.37
2019-02-12T05:51:44.939Z,1.83
2019-02-12T05:54:14.742Z,1.70
2019-02-12T05:56:44.549Z,1.70
2019-02-12T05:59:14.381Z,1.20
2019-02-12T06:01:44.429Z,1.50
2019-02-12T06:04:14.306Z,1.70
2019-02-12T06:06:44.092Z,1.43
2019-02-12T06:09:14.015Z,1.70
2019-02-12T06:11:43.794Z,1.80
2019-02-12T06:14:13.860Z,1.83
2019-02-12T06:16:43.650Z,1.20
2019-02-12T06:19:13.619Z,1.90
2019-02-12T06:21:43.549Z,1.57
2019-02-12T06:24:13.639Z,1.43
2019-02-12T06:26:43.559Z,1.70
2019-02-12T06:29:13.386Z,1.20
2019-02-12T06:31:43.250Z,1.63
2019-02-12T06:34:13.093Z,1.70
2019-02-12T06:36:43.149Z,1.33
2019-02-12T06:39:13.064Z,1.30
2019-02-12T06:41:43.110Z,1.47
2019-02-12T06:44:13.145Z,1.80
2019-02-12T06:46:43.064Z,1.20
2019-02-12T06:49:13.024Z,1.63
2019-02-12T06:51:42.993Z,1.57
2019-02-12T06:54:12.943Z,1.00
2019-02-12T06:56:42.906Z,1.40
2019-02-12T06:59:12.805Z,1.40
2019-02-12T07:01:42.675Z,1.40
2019-02-12T07:04:21.580Z,1.30
2019-02-12T07:07:22.352Z,1.57
2019-02-12T07:09:58.532Z,1.30
2019-02-12T07:13:33.267Z,1.33
2019-02-12T07:16:39.333Z,2.03
2019-02-12T07:19:22.774Z,1.40
2019-02-12T07:22:28.138Z,1.37
2019-02-12T07:25:52.551Z,1.50
2019-02-12T07:28:58.769Z,1.50
2019-02-12T07:32:08.086Z,1.60
2019-02-12T07:35:04.906Z,1.33
2019-02-12T07:37:59.759Z,1.20
2019-02-12T07:41:18.445Z,2.30
2019-02-12T07:44:24.366Z,2.00
2019-02-12T07:47:33.640Z,1.37
2019-02-12T07:50:33.859Z,1.87
2019-02-12T07:53:37.572Z,2.27
2019-02-12T07:56:45.948Z,1.87
2019-02-12T07:59:42.334Z,1.87
2019-02-12T08:02:43.787Z,2.37
2019-02-12T08:06:02.307Z,2.40
2019-02-12T08:09:22.911Z,2.33
2019-02-12T08:12:36.489Z,2.80
2019-02-12T08:15:42.834Z,2.53
2019-02-12T08:18:59.251Z,2.37
2019-02-12T08:22:08.491Z,2.20
2019-02-12T08:25:07.086Z,2.77
2019-02-12T08:28:11.157Z,2.63
2019-02-12T08:31:04.853Z,3.00
2019-02-12T08:34:11.172Z,2.40
2019-02-12T08:37:06.239Z,2.87
2019-02-12T08:39:58.110Z,2.70
2019-02-12T08:43:11.643Z,3.40
2019-02-12T08:46:09.631Z,2.73
2019-02-12T08:49:05.519Z,2.47
2019-02-12T08:52:14.149Z,1.97
2019-02-12T08:54:55.668Z,3.93
2019-02-12T08:57:53.106Z,1.57
2019-02-12T09:00:55.535Z,1.73
2019-02-12T09:04:21.137Z,1.60
2019-02-12T09:07:37.007Z,2.07
2019-02-12T09:11:00.787Z,1.67
2019-02-12T09:14:07.134Z,1.97
2019-02-12T09:17:06.800Z,1.17
2019-02-12T09:20:13.929Z,2.40
2019-02-12T09:23:09.942Z,1.63
2019-02-12T09:26:13.464Z,1.57
2019-02-12T09:28:54.035Z,1.73
2019-02-12T09:32:09.191Z,1.60
2019-02-12T09:35:05.640Z,1.70
2019-02-12T09:37:58.826Z,2.30
2019-02-12T09:40:58.037Z,2.20
2019-02-12T09:44:26.753Z,1.57
2019-02-12T09:47:20.536Z,2.00
2019-02-12T09:50:23.979Z,1.80
2019-02-12T09:53:17.326Z,1.83
2019-02-12T09:56:12.946Z,1.60
2019-02-12T09:59:03.181Z,1.70
2019-02-12T10:02:08.021Z,1.97
2019-02-12T10:05:01.031Z,1.90
2019-02-12T10:07:40.549Z,1.93
2019-02-12T10:11:03.390Z,1.70
2019-02-12T10:14:02.307Z,1.60
2019-02-12T10:16:55.716Z,1.33
2019-02-12T10:20:06.506Z,1.23
2019-02-12T10:23:15.839Z,1.70
2019-02-12T10:26:07.690Z,1.40
2019-02-12T10:29:15.713Z,1.60
2019-02-12T10:31:44.524Z,1.53
2019-02-12T10:34:14.650Z,1.87
2019-02-12T10:36:44.599Z,1.53
2019-02-12T10:39:17.545Z,1.80
2019-02-12T10:41:47.613Z,1.67
2019-02-12T10:44:17.700Z,1.70
2019-02-12T10:46:47.669Z,1.63
2019-02-12T10:49:17.763Z,1.43
2019-02-12T10:51:47.686Z,1.77
2019-02-12T10:54:17.737Z,1.70
2019-02-12T10:56:47.764Z,1.67
2019-02-12T10:59:17.809Z,1.47
2019-02-12T11:01:47.920Z,1.47
2019-02-12T11:04:17.846Z,1.33
2019-02-12T11:06:47.830Z,1.10
2019-02-12T11:09:17.971Z,1.43
2019-02-12T11:11:48.018Z,1.17
2019-02-12T11:14:17.988Z,1.20
2019-02-12T11:16:47.883Z,1.10
2019-02-12T11:19:17.824Z,1.10
2019-02-12T11:21:47.694Z,1.20
2019-02-12T11:24:17.795Z,1.50
2019-02-12T11:26:47.877Z,1.23
2019-02-12T11:29:18.851Z,1.80
2019-02-12T11:31:48.891Z,1.30
2019-02-12T11:34:19.676Z,1.40
2019-02-12T11:36:51.036Z,1.30
2019-02-12T11:39:21.045Z,1.50
2019-02-12T11:41:51.004Z,1.57
2019-02-12T11:44:21.303Z,1.40
2019-02-12T11:46:51.262Z,1.33
2019-02-12T11:49:21.467Z,1.17
2019-02-12T11:51:51.560Z,1.30
2019-02-12T11:54:21.745Z,1.47
2019-02-12T11:56:51.756Z,1.70
2019-02-12T11:59:21.701Z,1.63
2019-02-12T12:01:51.599Z,1.70
2019-02-12T12:04:21.647Z,1.53
2019-02-12T12:06:52.234Z,1.57
2019-02-12T12:09:22.311Z,1.40
2019-02-12T12:11:52.378Z,1.60
2019-02-12T12:14:22.344Z,1.43
2019-02-12T12:16:52.856Z,1.63
2019-02-12T12:19:22.923Z,1.40
2019-02-12T12:21:53.511Z,1.53
2019-02-12T12:24:23.494Z,1.10
2019-02-12T12:26:53.871Z,1.50
2019-02-12T12:29:23.969Z,1.43
2019-02-12T12:31:54.017Z,1.87
2019-02-12T12:34:23.996Z,2.03
2019-02-12T12:36:54.019Z,2.27
2019-02-12T12:39:24.113Z,2.87
2019-02-12T12:41:54.115Z,4.93
2019-02-12T12:44:26.438Z,3.33
2019-02-12T12:46:56.421Z,4.23
2019-02-12T12:49:27.309Z,2.90
2019-02-12T12:51:57.536Z,5.93
2019-02-12T12:54:27.456Z,2.87
2019-02-12T12:56:57.458Z,2.40
2019-02-12T12:59:27.396Z,2.73
2019-02-12T13:01:57.405Z,2.63
2019-02-12T13:04:27.428Z,3.17
2019-02-12T13:06:57.411Z,2.87
2019-02-12T13:09:27.891Z,3.00
2019-02-12T13:11:57.971Z,3.13
2019-02-12T13:14:27.916Z,2.70
2019-02-12T13:16:57.911Z,3.03
2019-02-12T13:19:27.915Z,2.97
2019-02-12T13:21:57.931Z,3.27
2019-02-12T13:24:27.987Z,3.20
2019-02-12T13:26:58.406Z,3.87
2019-02-12T13:29:28.337Z,3.80
2019-02-12T13:31:58.619Z,2.63
2019-02-12T13:34:28.683Z,4.33
2019-02-12T13:36:58.748Z,2.57
2019-02-12T13:39:28.714Z,2.33
2019-02-12T13:41:58.635Z,2.20
2019-02-12T13:44:28.592Z,2.10
2019-02-12T13:46:58.758Z,2.00
2019-02-12T13:49:28.670Z,2.80
2019-02-12T13:51:59.717Z,2.17
2019-02-12T13:54:29.792Z,2.13
2019-02-12T13:56:59.766Z,2.40
2019-02-12T13:59:29.683Z,2.23
2019-02-12T14:01:59.611Z,2.40
2019-02-12T14:04:29.635Z,2.37
2019-02-12T14:06:59.775Z,2.83
2019-02-12T14:09:29.711Z,2.53
2019-02-12T14:11:59.674Z,2.37
2019-02-12T14:14:29.618Z,2.37
2019-02-12T14:16:59.591Z,2.60
2019-02-12T14:19:29.440Z,3.07
2019-02-12T14:21:59.319Z,2.73
2019-02-12T14:24:29.316Z,3.30
2019-02-12T14:27:00.554Z,3.37
2019-02-12T14:29:30.611Z,3.10
2019-02-12T14:32:00.622Z,4.17
2019-02-12T14:34:30.695Z,2.27
2019-02-12T14:37:01.763Z,2.13
2019-02-12T14:39:31.678Z,2.23
2019-02-12T14:42:01.599Z,2.30
2019-02-12T14:44:31.561Z,1.93
2019-02-12T14:47:01.542Z,2.07
2019-02-12T14:49:31.618Z,2.03
2019-02-12T14:52:01.569Z,2.30
2019-02-12T14:54:31.558Z,1.97
2019-02-12T14:57:01.571Z,2.17
2019-02-12T14:59:31.467Z,2.10
2019-02-12T15:02:01.562Z,2.17
2019-02-12T15:04:31.468Z,1.60
2019-02-12T15:07:01.437Z,2.50
2019-02-12T15:09:31.365Z,1.93
2019-02-12T15:12:01.201Z,1.83
2019-02-12T15:14:31.129Z,1.97
2019-02-12T15:17:01.040Z,2.17
2019-02-12T15:19:31.038Z,1.57
2019-02-12T15:22:01.059Z,2.00
2019-02-12T15:24:31.051Z,1.53
2019-02-12T15:27:01.022Z,1.70
2019-02-12T15:29:30.905Z,1.60
2019-02-12T15:32:00.944Z,1.60
2019-02-12T15:34:31.040Z,1.57
2019-02-12T15:37:01.003Z,1.47
2019-02-12T15:39:31.144Z,1.40
2019-02-12T15:42:01.107Z,1.40
2019-02-12T15:44:31.226Z,1.63
2019-02-12T15:47:01.143Z,1.50
2019-02-12T15:49:31.133Z,1.40
2019-02-12T15:52:01.157Z,1.60
2019-02-12T15:54:31.088Z,1.50
2019-02-12T15:57:01.039Z,1.70
2019-02-12T15:59:31.503Z,1.70
2019-02-12T16:02:02.701Z,1.30
2019-02-12T16:04:32.577Z,1.43
2019-02-12T16:07:02.698Z,1.50
2019-02-12T16:09:35.038Z,1.47
2019-02-12T16:12:06.178Z,1.27
2019-02-12T16:14:36.124Z,1.47
2019-02-12T16:17:06.258Z,1.50
2019-02-12T16:19:36.381Z,1.50
2019-02-12T16:22:06.506Z,1.60
2019-02-12T16:24:36.488Z,1.57
2019-02-12T16:27:08.855Z,1.80
2019-02-12T16:29:40.505Z,1.60
2019-02-12T16:32:11.572Z,1.70
2019-02-12T16:34:41.547Z,1.33
2019-02-12T16:37:11.374Z,1.60
2019-02-12T16:39:41.197Z,1.80
2019-02-12T16:42:10.995Z,1.67
2019-02-12T16:44:40.857Z,1.63
2019-02-12T16:47:10.619Z,1.70
2019-02-12T16:49:40.510Z,1.60
2019-02-12T16:52:10.391Z,1.60
2019-02-12T16:54:40.298Z,1.63
2019-02-12T16:57:10.131Z,1.50
2019-02-12T16:59:43.522Z,1.60
2019-02-12T17:02:14.092Z,1.53
2019-02-12T17:04:43.955Z,1.70
2019-02-12T17:07:13.869Z,1.70
2019-02-12T17:09:51.991Z,1.40
2019-02-12T17:12:15.298Z,1.60
2019-02-12T17:14:45.606Z,1.60
2019-02-12T17:17:15.946Z,1.90
2019-02-12T17:19:46.290Z,2.07
2019-02-12T17:22:16.215Z,2.37
2019-02-12T17:24:46.387Z,2.03
2019-02-12T17:27:16.416Z,1.53
2019-02-12T17:29:46.386Z,1.70
2019-02-12T17:32:16.146Z,1.90
2019-02-12T17:34:46.715Z,1.43
2019-02-12T17:37:17.505Z,2.10
2019-02-12T17:39:48.464Z,1.47
2019-02-12T17:42:20.208Z,1.73
2019-02-12T17:44:51.676Z,1.60
2019-02-12T17:47:22.872Z,2.00
2019-02-12T17:49:53.142Z,1.87
2019-02-12T17:52:23.399Z,2.10
2019-02-12T17:54:53.310Z,1.90
2019-02-12T17:57:25.981Z,1.60
2019-02-12T17:59:55.802Z,1.80
2019-02-12T18:02:25.661Z,2.50
2019-02-12T18:04:55.537Z,1.57
2019-02-12T18:07:25.394Z,2.10
2019-02-12T18:09:55.193Z,2.20
2019-02-12T18:12:25.036Z,1.97
2019-02-12T18:14:54.852Z,1.70
2019-02-12T18:17:24.747Z,1.70
2019-02-12T18:19:54.650Z,1.90
2019-02-12T18:22:24.566Z,2.00
2019-02-12T18:24:54.396Z,2.00
2019-02-12T18:27:24.203Z,1.67
2019-02-12T18:29:54.083Z,1.67
2019-02-12T18:32:23.969Z,2.03
2019-02-12T18:34:53.895Z,2.07
2019-02-12T18:37:23.782Z,1.97
2019-02-12T18:39:53.690Z,1.80
2019-02-12T18:42:23.627Z,2.50
2019-02-12T18:44:53.395Z,2.40
2019-02-12T18:47:23.253Z,1.73
2019-02-12T18:49:53.035Z,2.20
2019-02-12T18:52:22.880Z,1.90
2019-02-12T18:54:52.770Z,2.00
2019-02-12T18:57:22.642Z,2.07
2019-02-12T18:59:52.570Z,2.53
2019-02-12T19:02:22.763Z,2.27
2019-02-12T19:04:52.637Z,2.43
2019-02-12T19:07:22.484Z,1.70
2019-02-12T19:09:52.431Z,1.57
2019-02-12T19:12:22.344Z,2.10
2019-02-12T19:14:52.177Z,2.20
2019-02-12T19:17:22.027Z,1.70
2019-02-12T19:19:51.830Z,4.20
2019-02-12T19:22:21.682Z,3.50
2019-02-12T19:24:51.454Z,2.03
2019-02-12T19:27:21.316Z,1.73
2019-02-12T19:29:51.160Z,1.60
2019-02-12T19:32:20.999Z,1.83
2019-02-12T19:34:51.138Z,3.00
2019-02-12T19:37:20.994Z,6.03
2019-02-12T19:39:50.766Z,2.03
2019-02-12T19:42:20.553Z,2.47
2019-02-12T19:44:50.399Z,2.40
2019-02-12T19:47:20.339Z,2.00
2019-02-12T19:49:50.151Z,2.50
2019-02-12T19:52:19.998Z,2.23
2019-02-12T19:54:49.897Z,2.40
2019-02-12T19:57:19.703Z,2.30
2019-02-12T19:59:49.646Z,2.47
2019-02-12T20:02:19.580Z,1.80
2019-02-12T20:04:49.412Z,2.30
2019-02-12T20:07:19.281Z,2.73
2019-02-12T20:09:49.196Z,2.50
2019-02-12T20:12:19.083Z,2.10
2019-02-12T20:14:48.914Z,3.07
2019-02-12T20:17:18.868Z,2.50
2019-02-12T20:19:49.107Z,2.60
2019-02-12T20:22:19.055Z,2.50
2019-02-12T20:24:49.210Z,2.93
2019-02-12T20:27:19.127Z,2.60
2019-02-12T20:29:49.115Z,3.13
2019-02-12T20:32:18.963Z,2.90
2019-02-12T20:34:51.526Z,3.23
2019-02-12T20:37:21.519Z,3.10
2019-02-12T20:39:51.464Z,2.50
2019-02-12T20:42:21.430Z,2.77
2019-02-12T20:44:51.311Z,3.00
2019-02-12T20:47:21.351Z,2.63
2019-02-12T20:49:51.334Z,2.53
2019-02-12T20:52:21.261Z,2.77
2019-02-12T20:54:51.259Z,3.13
2019-02-12T20:57:23.318Z,3.00
2019-02-12T20:59:53.656Z,2.83
2019-02-12T21:02:24.026Z,3.57
2019-02-12T21:04:54.007Z,3.40
2019-02-12T21:07:24.141Z,3.37
2019-02-12T21:09:54.105Z,2.90
2019-02-12T21:12:24.448Z,3.47
2019-02-12T21:14:55.472Z,3.10
2019-02-12T21:17:25.438Z,2.77
2019-02-12T21:19:55.364Z,2.90
2019-02-12T21:22:25.582Z,2.67
2019-02-12T21:24:56.821Z,2.40
2019-02-12T21:27:27.054Z,2.73
2019-02-12T21:29:58.373Z,2.83
2019-02-12T21:32:28.653Z,2.90
2019-02-12T21:34:58.743Z,2.20
2019-02-12T21:37:29.071Z,2.30
2019-02-12T21:39:59.118Z,2.20
2019-02-12T21:42:29.079Z,2.73
2019-02-12T21:44:59.435Z,2.33
2019-02-12T21:47:29.410Z,2.30
2019-02-12T21:50:02.759Z,2.07
2019-02-12T21:52:32.834Z,2.00
2019-02-12T21:55:02.761Z,2.60
2019-02-12T21:57:32.861Z,2.10
2019-02-12T22:00:03.720Z,2.53
2019-02-12T22:02:33.656Z,1.83
2019-02-12T22:05:03.587Z,2.53
2019-02-12T22:07:33.572Z,2.57
2019-02-12T22:10:04.088Z,1.97
2019-02-12T22:12:33.880Z,2.47
2019-02-12T22:15:03.770Z,2.20
2019-02-12T22:17:33.688Z,2.10
2019-02-12T22:20:03.646Z,2.70
2019-02-12T22:22:33.534Z,2.10
2019-02-12T22:25:03.425Z,1.90
2019-02-12T22:27:40.061Z,2.40
2019-02-12T22:30:05.042Z,2.10
2019-02-12T22:32:34.827Z,2.20
2019-02-12T22:35:05.075Z,2.53
2019-02-12T22:37:34.985Z,2.20
2019-02-12T22:40:05.169Z,2.43
2019-02-12T22:42:34.947Z,2.87
2019-02-12T22:45:05.260Z,2.37
2019-02-12T22:47:35.046Z,2.43
2019-02-12T22:50:05.147Z,2.47
2019-02-12T22:52:34.991Z,2.30
2019-02-12T22:55:04.886Z,2.50
2019-02-12T22:57:34.712Z,2.00
2019-02-12T23:00:05.939Z,2.57
2019-02-12T23:02:35.714Z,2.70
2019-02-12T23:05:05.690Z,2.37
2019-02-12T23:07:35.457Z,2.17
2019-02-12T23:10:05.667Z,3.07
2019-02-12T23:12:35.534Z,2.73
2019-02-12T23:15:06.999Z,2.10
2019-02-12T23:17:36.867Z,2.37
2019-02-12T23:20:06.816Z,2.20
2019-02-12T23:22:36.537Z,2.80
2019-02-12T23:25:06.397Z,2.47
2019-02-12T23:27:36.134Z,2.50
2019-02-12T23:30:06.539Z,2.50
2019-02-12T23:32:36.391Z,2.53
2019-02-12T23:35:06.327Z,2.80
2019-02-12T23:37:36.168Z,2.57
2019-02-12T23:40:05.920Z,3.00
2019-02-12T23:42:35.745Z,2.90
2019-02-12T23:45:05.853Z,2.73
2019-02-12T23:47:35.573Z,3.10
2019-02-12T23:50:05.510Z,3.17
2019-02-12T23:52:35.310Z,3.30
2019-02-12T23:55:05.370Z,3.80
2019-02-12T23:57:35.191Z,4.17
